Latest Weather Observations for Chinchilla Airport

IDQ60801

Issued at 9:43 pm EST Sunday 26 June 2022 (issued every 10 minutes, with the page automatically refreshed every 10 minutes)

About weather observations | Map of weather stations | Latest weather observations for QLD | Other Formats
Station Details ID: 541157 Name: CHINCHILLA AIRPORT Lat: -26.77 Lon: 150.62 Height: 310.66 m
Data from the previous 72 hours. | See also: Recent months for locations in Queensland
Date/Time
EST
Temp
°C
App
Temp
°C
Dew
Point
°C
Rel
Hum
%
Delta-T
°C
Wind Press
QNH
hPa
Press
MSL
hPa
Rain since
9am
mm
Dir  Spd
km/h
Gust
km/h
Spd
kts
Gust
kts
26/09:30pm 8.0 6.8 6.6 91 0.7 N 2 6 1 3 1025.4 - 0.0
26/09:00pm 8.8 7.4 7.4 91 0.7 N 4 4 2 2 1025.2 - 0.0
26/08:30pm 9.1 8.1 7.4 89 0.8 NE 2 4 1 2 1025.0 - 0.0
26/08:00pm 10.5 8.7 7.2 80 1.6 NE 6 19 3 10 1025.0 - 0.0
26/07:30pm 10.5 9.3 6.6 77 1.9 W 2 4 1 2 1024.6 - 0.0
26/07:00pm 10.8 9.8 7.3 79 1.7 N 2 2 1 1 1024.4 - 0.0
26/06:30pm 11.7 10.7 7.4 75 2.1 SSW 2 4 1 2 1024.2 - 0.0
26/06:00pm 13.5 12.9 7.5 67 3.0 CALM 0 2 0 1 1023.7 - 0.0
26/05:30pm 14.0 12.6 7.3 64 3.3 S 4 4 2 2 1023.2 - 0.0
26/05:00pm 18.0 17.0 7.4 50 5.4 SE 2 4 1 2 1023.1 - 0.0
26/04:30pm 19.6 18.3 7.7 46 6.2 SSE 4 6 2 3 1023.0 - 0.0
26/04:00pm 20.1 18.5 7.8 45 6.4 SE 6 11 3 6 1022.8 - 0.0
26/03:30pm 20.4 19.3 6.7 41 7.0 SW 2 4 1 2 1022.8 - 0.0
26/03:00pm 20.6 19.0 6.2 39 7.3 SE 4 9 2 5 1022.8 - 0.0
26/02:30pm 20.3 18.8 6.6 41 7.0 E 4 7 2 4 1023.0 - 0.0
26/02:00pm 20.5 18.1 6.8 41 7.1 E 9 20 5 11 1023.2 - 0.0
26/01:30pm 19.8 18.2 6.5 42 6.8 SE 4 7 2 4 1023.6 - 0.0
26/01:00pm 19.4 17.8 8.1 48 5.9 NE 6 11 3 6 1023.9 - 0.0
26/12:30pm 19.2 17.6 7.9 48 5.9 N 6 13 3 7 1024.3 - 0.0
26/12:00pm 18.8 17.2 8.2 50 5.5 ENE 6 11 3 6 1025.3 - 0.0
26/11:30am 18.4 17.3 10.0 58 4.5 N 6 11 3 6 1025.5 - 0.0
26/11:00am 17.1 16.0 10.0 63 3.8 NE 6 11 3 6 1025.7 - 0.0
26/10:30am 16.1 15.5 8.8 62 3.8 ENE 2 7 1 4 1026.0 - 0.0
26/10:00am 13.9 12.5 7.4 65 3.2 E 4 7 2 4 1026.1 - 0.0
26/09:30am 11.5 10.0 6.8 73 2.3 ESE 4 6 2 3 1026.1 - 0.0
26/09:00am 10.7 8.8 6.5 75 2.0 E 6 7 3 4 1025.9 - 0.0
26/08:30am 9.6 7.6 6.3 80 1.6 E 6 7 3 4 1025.8 - 0.0
26/08:00am 7.8 5.9 4.9 82 1.3 E 4 7 2 4 1025.6 - 0.0
26/07:30am 5.0 2.9 4.0 93 0.4 ENE 4 6 2 3 1025.6 - 0.0
26/07:00am 2.1 0.4 1.7 97 0.2 CALM 0 2 0 1 1025.2 - 0.0
26/06:30am 2.7 0.7 2.4 98 0.1 NNE 2 4 1 2 1025.1 - 0.0
26/06:00am 3.3 1.3 2.3 93 0.4 NNW 2 2 1 1 1024.6 - 0.0
26/05:30am 4.5 2.7 3.3 92 0.5 ENE 2 6 1 3 1024.4 - 0.0
26/05:00am 4.4 2.5 3.1 91 0.5 E 2 6 1 3 1023.8 - 0.0
26/04:30am 3.6 1.2 2.4 92 0.5 ESE 4 6 2 3 1023.9 - 0.0
26/04:00am 3.3 1.4 2.7 96 0.2 E 2 4 1 2 1023.9 - 0.0
26/03:30am 4.3 1.9 2.3 87 0.8 S 4 4 2 2 1023.8 - 0.0
26/03:00am 4.6 2.4 3.6 93 0.4 NE 4 6 2 3 1024.0 - 0.0
26/02:30am 3.9 1.7 3.3 96 0.3 NNE 4 6 2 3 1024.1 - 0.0
26/02:00am 4.1 2.3 3.2 94 0.4 SE 2 4 1 2 1023.9 - 0.0
26/01:30am 4.1 2.3 3.2 94 0.4 E 2 4 1 2 1024.1 - 0.0
26/01:00am 4.5 2.8 4.2 98 0.1 NNE 2 4 1 2 1024.2 - 0.0
26/12:30am 4.8 3.1 4.1 95 0.3 E 2 4 1 2 1024.2 - 0.0
26/12:00am 5.3 3.7 4.4 94 0.4 NW 2 4 1 2 1024.2 - 0.0
 
Date/Time
EST
Temp
°C
App
Temp
°C
Dew
Point
°C
Rel
Hum
%
Delta-T
°C
Wind Press
QNH
hPa
Press
MSL
hPa
Rain since
9am
mm
Dir  Spd
km/h
Gust
km/h
Spd
kts
Gust
kts
25/11:30pm 5.2 3.5 4.2 93 0.4 NE 2 4 1 2 1024.3 - 0.0
25/11:00pm 6.5 5.0 4.8 89 0.8 WNW 2 2 1 1 1024.3 - 0.0
25/10:30pm 6.5 4.9 4.5 87 0.9 NNE 2 2 1 1 1024.4 - 0.0
25/10:00pm 6.3 4.7 4.6 89 0.7 NE 2 2 1 1 1024.4 - 0.0
25/09:30pm 7.3 5.9 5.4 88 0.9 ESE 2 2 1 1 1024.4 - 0.0
25/09:00pm 8.7 7.2 5.1 78 1.6 SSE 2 2 1 1 1024.3 - 0.0
25/08:30pm 9.2 7.5 4.2 71 2.2 ESE 2 4 1 2 1024.2 - 0.0
25/08:00pm 9.6 7.7 4.8 72 2.2 ESE 4 6 2 3 1024.1 - 0.0
25/07:30pm 9.3 7.9 5.3 76 1.8 ESE 2 2 1 1 1023.9 - 0.0
25/07:00pm 10.5 8.6 5.1 69 2.5 S 4 6 2 3 1023.6 - 0.0
25/06:30pm 10.7 8.9 5.5 70 2.4 SSE 4 6 2 3 1023.2 - 0.0
25/06:00pm 12.5 11.2 5.9 64 3.2 NNE 2 4 1 2 1023.0 1023.0 0.0
25/05:30pm 14.2 12.9 6.1 58 3.9 ENE 2 2 1 1 1022.7 - 0.0
25/05:00pm 17.9 16.8 6.7 48 5.7 NW 2 4 1 2 1022.6 - 0.0
25/04:30pm 20.0 18.2 3.7 34 7.9 E 2 6 1 3 1022.3 - 0.0
25/04:00pm 20.5 18.4 3.7 33 8.1 ESE 4 7 2 4 1022.1 - 0.0
25/03:30pm 21.0 19.3 4.1 33 8.3 SW 2 4 1 2 1022.0 - 0.0
25/03:00pm 20.8 18.6 3.1 31 8.5 SSW 4 7 2 4 1021.8 - 0.0
25/02:30pm 20.6 17.7 2.4 30 8.6 S 7 13 4 7 1021.9 - 0.0
25/02:00pm 20.6 18.5 3.8 33 8.2 S 4 13 2 7 1022.0 - 0.0
25/01:30pm 20.1 18.0 3.8 34 7.9 SW 4 7 2 4 1022.2 - 0.0
25/01:00pm 19.8 17.1 2.6 32 8.1 S 6 11 3 6 1022.7 - 0.0
25/12:30pm 19.6 17.5 4.1 36 7.5 WNW 4 7 2 4 1022.8 - 0.0
25/12:00pm 19.8 18.2 4.7 37 7.4 N 2 7 1 4 1023.6 - 0.0
25/11:30am 18.6 17.0 4.4 39 6.9 ENE 2 6 1 3 1023.9 - 0.0
25/11:00am 17.9 16.0 4.8 42 6.4 ENE 4 7 2 4 1024.3 - 0.0
25/10:30am 16.3 14.0 5.0 47 5.5 ENE 6 11 3 6 1024.4 - 0.0
25/10:00am 14.2 12.1 5.6 56 4.1 E 6 9 3 5 1024.2 - 0.0
25/09:30am 11.6 9.3 5.0 64 3.1 ENE 6 7 3 4 1024.1 - 0.0
25/09:00am 9.3 7.7 4.7 73 2.1 ENE 2 6 1 3 1024.1 - 0.0
25/08:30am 7.2 5.2 4.2 81 1.3 NNE 4 6 2 3 1023.7 - 0.0
25/08:00am 5.9 4.0 3.1 82 1.2 NNE 2 4 1 2 1023.2 - 0.0
25/07:30am 3.5 1.5 2.2 91 0.5 NE 2 6 1 3 1023.2 - 0.0
25/07:00am 1.1 -0.8 0.8 98 0.1 CALM 0 2 0 1 1022.6 - 0.0
25/06:30am 1.6 -0.5 1.5 99 0.0 E 2 2 1 1 1022.7 - 0.0
25/06:00am 1.2 -1.0 1.1 99 0.0 ESE 2 4 1 2 1022.4 - 0.0
25/05:30am 1.8 -0.3 1.7 99 0.0 NNE 2 4 1 2 1022.4 - 0.0
25/05:00am 2.2 0.5 1.9 98 0.1 CALM 0 0 0 0 1022.0 - 0.0
25/04:30am 1.6 -1.4 1.0 96 0.2 SSE 6 6 3 3 1021.6 - 0.0
25/04:00am 1.6 -0.2 1.5 99 0.0 CALM 0 2 0 1 1021.7 - 0.0
25/03:30am 1.9 -0.2 1.8 99 0.0 NNE 2 2 1 1 1021.6 - 0.0
25/03:00am 2.0 -0.1 1.9 99 0.0 ENE 2 2 1 1 1021.7 - 0.0
25/02:30am 2.5 0.5 2.2 98 0.1 ESE 2 2 1 1 1021.6 - 0.0
25/02:00am 3.0 1.5 2.9 99 0.0 CALM 0 2 0 1 1021.8 - 0.0
25/01:30am 2.7 0.7 2.4 98 0.1 E 2 2 1 1 1022.0 - 0.0
25/01:00am 3.6 2.1 3.0 96 0.2 CALM 0 2 0 1 1022.2 - 0.0
25/12:30am 3.6 1.8 3.2 97 0.2 ENE 2 2 1 1 1022.2 - 0.0
25/12:00am 3.6 2.0 2.7 94 0.4 CALM 0 2 0 1 1022.3 - 0.0
 
Date/Time
EST
Temp
°C
App
Temp
°C
Dew
Point
°C
Rel
Hum
%
Delta-T
°C
Wind Press
QNH
hPa
Press
MSL
hPa
Rain since
9am
mm
Dir  Spd
km/h
Gust
km/h
Spd
kts
Gust
kts
24/11:30pm 4.6 3.2 3.6 93 0.4 CALM 0 2 0 1 1022.5 - 0.0
24/11:00pm 4.8 3.1 4.1 95 0.3 NNE 2 4 1 2 1022.8 - 0.0
24/10:30pm 5.1 3.4 4.1 93 0.4 NNE 2 4 1 2 1023.1 - 0.0
24/10:00pm 5.5 3.7 3.7 88 0.8 NNE 2 4 1 2 1023.2 - 0.0
24/09:30pm 5.2 3.4 3.2 87 0.8 NNE 2 2 1 1 1023.0 - 0.0
24/09:00pm 6.3 4.4 3.1 80 1.4 NE 2 2 1 1 1022.9 - 0.0
24/08:30pm 7.5 6.1 3.7 77 1.7 CALM 0 2 0 1 1022.9 - 0.0
24/08:00pm 7.8 6.4 3.3 73 1.9 CALM 0 2 0 1 1022.7 - 0.0
24/07:30pm 8.4 7.1 4.2 75 1.9 CALM 0 0 0 0 1022.6 - 0.0
24/07:00pm 10.0 8.8 4.6 69 2.5 CALM 0 2 0 1 1022.3 - 0.0
24/06:30pm 10.2 8.4 3.3 62 3.1 SSE 2 2 1 1 1022.2 - 0.0
24/06:00pm 12.0 10.3 3.8 57 3.7 SSW 2 2 1 1 1021.8 - 0.0
24/05:30pm 13.6 11.5 3.7 51 4.6 WSW 4 6 2 3 1021.6 - 0.0
24/05:00pm 18.5 16.3 3.2 36 7.2 W 4 6 2 3 1021.4 - 0.0
24/04:30pm 19.6 16.9 2.9 33 7.9 W 6 7 3 4 1021.3 - 0.0
24/04:00pm 20.3 17.7 3.1 32 8.2 W 6 9 3 5 1021.3 - 0.0
24/03:30pm 20.3 17.4 1.2 28 8.8 WNW 6 11 3 6 1021.1 - 0.0
24/03:00pm 20.6 18.0 1.0 27 9.0 WSW 4 13 2 7 1021.1 - 0.0
24/02:30pm 20.3 16.9 -0.3 25 9.2 WSW 7 11 4 6 1021.2 - 0.0
24/02:00pm 20.0 16.8 -0.6 25 9.1 WSW 6 9 3 5 1021.2 - 0.0
24/01:30pm 20.1 16.4 0.0 26 9.0 SW 9 15 5 8 1021.5 - 0.0
24/01:00pm 19.6 16.4 0.6 28 8.6 WSW 7 15 4 8 1021.8 - 0.0
24/12:30pm 19.7 17.4 0.7 28 8.6 W 2 11 1 6 1022.2 - 0.0
24/12:00pm 18.9 16.1 2.3 33 7.7 SE 6 11 3 6 1022.6 - 0.0
24/11:30am 18.3 16.2 3.8 38 6.9 NNE 4 7 2 4 1023.2 - 0.0
24/11:00am 17.4 15.3 3.7 40 6.5 NNE 4 6 2 3 1023.9 - 0.0
24/10:30am 16.7 15.0 4.1 43 6.0 NE 2 7 1 4 1024.1 - 0.0
24/10:00am 14.8 13.1 5.9 55 4.3 ENE 4 7 2 4 1024.2 - 0.0
24/09:30am 12.5 11.3 6.5 67 2.9 NE 2 4 1 2 1024.5 - 0.0
24/09:00am 10.0 8.7 6.0 76 1.9 SSE 2 4 1 2 1024.4 - 0.0
24/08:30am 7.5 6.1 5.3 86 1.0 S 2 2 1 1 1024.2 - 0.0
24/08:00am 7.8 6.5 4.0 77 1.7 CALM 0 0 0 0 1023.9 - 0.0
24/07:30am 3.6 1.7 3.0 96 0.2 NNE 2 2 1 1 1023.9 - 0.0
24/07:00am 1.2 -1.0 1.1 99 0.0 NNE 2 4 1 2 1023.7 - 0.0
24/06:30am 1.4 -0.8 1.3 99 0.0 NNE 2 4 1 2 1023.7 - 0.0
24/06:00am 1.9 -0.2 1.8 99 0.0 ENE 2 2 1 1 1023.2 - 0.0
24/05:30am 1.7 -0.4 1.4 98 0.1 S 2 2 1 1 1023.0 - 0.0
24/05:00am 1.7 -0.1 1.1 96 0.2 CALM 0 2 0 1 1022.8 - 0.0
24/04:30am 1.9 -0.3 1.3 96 0.2 NW 2 2 1 1 1022.7 - 0.0
24/04:00am 2.2 0.4 1.3 94 0.4 CALM 0 0 0 0 1022.8 - 0.0
24/03:30am 2.3 0.6 1.7 96 0.2 CALM 0 2 0 1 1023.0 - 0.0
24/03:00am 2.5 0.8 1.8 95 0.3 CALM 0 2 0 1 1023.1 - 0.0
24/02:30am 2.7 1.0 2.1 96 0.2 CALM 0 0 0 0 1023.4 - 0.0
24/02:00am 3.2 1.3 2.8 97 0.2 NNE 2 2 1 1 1023.5 - 0.0
24/01:30am 3.5 1.6 2.9 96 0.2 NW 2 2 1 1 1023.9 - 0.0
24/01:00am 3.7 2.2 3.1 96 0.2 CALM 0 2 0 1 1023.9 - 0.0
24/12:30am 3.9 2.0 2.6 91 0.5 NNE 2 2 1 1 1024.0 - 0.0
24/12:00am 4.1 2.6 3.2 94 0.4 CALM 0 2 0 1 1024.1 - 0.0
 
Date/Time
EST
Temp
°C
App
Temp
°C
Dew
Point
°C
Rel
Hum
%
Delta-T
°C
Wind Press
QNH
hPa
Press
MSL
hPa
Rain since
9am
mm
Dir  Spd
km/h
Gust
km/h
Spd
kts
Gust
kts
23/11:30pm 4.7 3.1 2.4 85 0.9 CALM 0 2 0 1 1024.2 - 0.0
23/11:00pm 5.1 3.3 3.6 90 0.6 NNE 2 2 1 1 1024.3 - 0.0
23/10:30pm 5.5 3.8 3.8 89 0.7 NW 2 2 1 1 1024.4 - 0.0
23/10:00pm 6.3 5.1 4.6 89 0.7 CALM 0 2 0 1 1024.5 - 0.0

Other formats

Comma delimited format used in spreadsheet applications
http://www.bom.gov.au/fwo/IDQ60801/IDQ60801.99402.axf

JavaScript Object Notation format (JSON) in row-major order
http://www.bom.gov.au/fwo/IDQ60801/IDQ60801.99402.json

Data quality

Most of these data are generated automatically and are frequently updated. Quality checks on data are not normally performed. It is possible for incorrect values to appear. Refer to information at About Latest Weather Observations and please check the disclaimer before using these data.